»·PEaware :: JBU5474 KPSP-KJAC

JBU5474 :: KPSP-KJAC

FLIGHT INFORMATION

Flight Status: Arrived
Operator:
JetBlue Airways
More flights by this operator :: More flights under this callsign
Pilot: Anonymous 15267 (15267)
Aircraft: AIRBUS A321
(A321)
More flights by this aircraft type
Origin: KPSP Palm Springs Intl
United States
Destination: KJAC Jackson Hole
United States
More flights between these airports :: More routes between these airports
Route: CATH1 PSP V370 TNP JOTNU/N0447F350 ZELMA HAKMN MLF J9 FFU FBR BPI JAC
File this flight plan on PilotEdge
Remarks: RMK / SIMBRIEF
Altitude:
(Current/Filed)
35,000ft
Speed:
(Current/Filed)
380kts
Departed: 05-Jan-21 01:17 PM
Arrived: 05-Jan-21 03:07 PM
Distance/Time
Traveled:
645nm/1:50
Distance/Time
To Go:
Arrived

Flight Plot

Page will automatically refresh every two minutes.

Flight plan parsing failed; only flown route is shown


Map Options




Map Legend


Flown Route
Filed Route
Departure Airport
Arrival Airport
Navaid (VOR, NDB)
Fix

Horizontal Profiles

Position Reports

Time Latitude Longitude Heading Altitude Ground
Speed
05-Jan-21 12:44 33.822729 -116.505819 292 486ft 0kts
05-Jan-21 12:44 33.822729 -116.505819 292 486ft 0kts
05-Jan-21 12:46 33.822729 -116.505819 292 486ft 0kts
05-Jan-21 12:47 33.822729 -116.505819 292 486ft 0kts
05-Jan-21 12:48 33.822729 -116.505819 292 486ft 0kts
05-Jan-21 12:48 33.822729 -116.505819 292 486ft 0kts
05-Jan-21 12:49 33.822729 -116.505819 292 486ft 0kts
05-Jan-21 12:50 33.822729 -116.505819 292 486ft 0kts
05-Jan-21 12:52 33.822729 -116.505819 292 486ft 0kts
05-Jan-21 12:52 33.822729 -116.505819 292 486ft 0kts
05-Jan-21 12:53 33.822729 -116.505819 292 486ft 0kts
05-Jan-21 12:54 33.822729 -116.505819 292 486ft 0kts
05-Jan-21 12:55 33.822729 -116.505819 292 486ft 0kts
05-Jan-21 12:56 33.822729 -116.505819 292 486ft 0kts
05-Jan-21 12:57 33.822729 -116.505819 292 486ft 0kts
05-Jan-21 12:58 33.822729 -116.505819 292 486ft 0kts
05-Jan-21 12:59 33.822729 -116.505819 292 486ft 0kts
05-Jan-21 13:00 33.822729 -116.505819 292 486ft 0kts
05-Jan-21 13:01 33.822729 -116.505819 292 486ft 0kts
05-Jan-21 13:02 33.822729 -116.505819 292 486ft 0kts
05-Jan-21 13:03 33.822729 -116.505819 292 486ft 0kts
05-Jan-21 13:04 33.822729 -116.505819 292 486ft 0kts
05-Jan-21 13:05 33.822729 -116.505818 292 486ft 0kts
05-Jan-21 13:06 33.822390 -116.505410 13 486ft 2kts
05-Jan-21 13:07 33.822215 -116.505572 52 486ft 0kts
05-Jan-21 13:08 33.822215 -116.505571 52 486ft 0kts
05-Jan-21 13:09 33.822215 -116.505571 52 486ft 0kts
05-Jan-21 13:10 33.822215 -116.505571 52 486ft 0kts
05-Jan-21 13:11 33.822813 -116.504649 51 486ft 9kts
05-Jan-21 13:12 33.820927 -116.501924 143 486ft 14kts
05-Jan-21 13:13 33.818544 -116.499449 91 486ft 0kts
05-Jan-21 13:14 33.818544 -116.499448 91 486ft 0kts
05-Jan-21 13:15 33.819053 -116.498300 338 486ft 9kts
05-Jan-21 13:16 33.845321 -116.522254 321 1393ft 178kts
05-Jan-21 13:17 33.886509 -116.564330 320 3635ft 226kts
05-Jan-21 13:18 33.945017 -116.555526 67 6298ft 278kts
05-Jan-21 13:19 33.964844 -116.462783 73 9435ft 296kts
05-Jan-21 13:20 33.987104 -116.360805 73 11349ft 345kts
05-Jan-21 13:21 34.011588 -116.245976 73 13975ft 362kts
05-Jan-21 13:22 34.037694 -116.123317 73 15961ft 398kts
05-Jan-21 13:23 34.065333 -115.992499 72 18601ft 411kts
05-Jan-21 13:24 34.093925 -115.856680 71 21012ft 423kts
05-Jan-21 13:25 34.144444 -115.732163 39 23136ft 417kts
05-Jan-21 13:26 34.230820 -115.636442 38 25097ft 427kts
05-Jan-21 13:27 34.321575 -115.543455 23 26771ft 428kts
05-Jan-21 13:28 34.429608 -115.480609 22 28367ft 435kts
05-Jan-21 13:29 34.536674 -115.415206 22 30205ft 429kts
05-Jan-21 13:30 34.642786 -115.349543 22 31578ft 429kts
05-Jan-21 13:31 34.748572 -115.283485 22 32750ft 429kts
05-Jan-21 13:32 34.855465 -115.219635 21 33792ft 428kts
05-Jan-21 13:33 34.962586 -115.156171 21 34710ft 429kts
05-Jan-21 13:34 35.070065 -115.092268 21 35175ft 438kts
05-Jan-21 13:35 35.180325 -115.026600 21 35167ft 441kts
05-Jan-21 13:36 35.290428 -114.960737 21 35154ft 442kts
05-Jan-21 13:37 35.400524 -114.894583 21 35149ft 442kts
05-Jan-21 13:38 35.510923 -114.827560 21 35181ft 443kts
05-Jan-21 13:39 35.620820 -114.760291 21 35218ft 443kts
05-Jan-21 13:40 35.730811 -114.692807 21 35226ft 443kts
05-Jan-21 13:41 35.841427 -114.624716 21 35226ft 444kts
05-Jan-21 13:42 35.951612 -114.556693 21 35229ft 445kts
05-Jan-21 13:43 36.061551 -114.488555 20 35234ft 443kts
05-Jan-21 13:44 36.171892 -114.420206 20 35235ft 443kts
05-Jan-21 13:45 36.281850 -114.351791 20 35235ft 443kts
05-Jan-21 13:46 36.391597 -114.282711 21 35235ft 443kts
05-Jan-21 13:47 36.501183 -114.213847 21 35235ft 443kts
05-Jan-21 13:48 36.610840 -114.144824 21 35235ft 442kts
05-Jan-21 13:49 36.720232 -114.075760 21 35236ft 441kts
05-Jan-21 13:50 36.828886 -114.006951 21 35235ft 439kts
05-Jan-21 13:51 36.938340 -113.937416 20 35235ft 442kts
05-Jan-21 13:52 37.047518 -113.867799 20 35236ft 442kts
05-Jan-21 13:53 37.156658 -113.798127 20 35236ft 440kts
05-Jan-21 13:54 37.265260 -113.728594 20 35244ft 439kts
05-Jan-21 13:55 37.373948 -113.658667 20 35251ft 439kts
05-Jan-21 13:56 37.482233 -113.588727 20 35253ft 438kts
05-Jan-21 13:57 37.590329 -113.518703 20 35253ft 437kts
05-Jan-21 13:58 37.698201 -113.448585 20 35253ft 437kts
05-Jan-21 13:59 37.806390 -113.378024 20 35254ft 438kts
05-Jan-21 14:00 37.914244 -113.307139 21 35262ft 439kts
05-Jan-21 14:01 38.022734 -113.235698 20 35270ft 438kts
05-Jan-21 14:02 38.130949 -113.164483 20 35272ft 438kts
05-Jan-21 14:03 38.239131 -113.093190 20 35272ft 439kts
05-Jan-21 14:04 38.347623 -113.021325 20 35276ft 439kts
05-Jan-21 14:05 38.458511 -112.959339 16 35287ft 436kts
05-Jan-21 14:06 38.570033 -112.898798 16 35291ft 437kts
05-Jan-21 14:07 38.681613 -112.837903 16 35296ft 437kts
05-Jan-21 14:08 38.793514 -112.776609 16 35299ft 437kts
05-Jan-21 14:09 38.904825 -112.715429 16 35300ft 437kts
05-Jan-21 14:10 39.016577 -112.653797 16 35303ft 437kts
05-Jan-21 14:11 39.128064 -112.592138 16 35309ft 437kts
05-Jan-21 14:12 39.239919 -112.530183 16 35309ft 437kts
05-Jan-21 14:13 39.351086 -112.468249 16 35309ft 436kts
05-Jan-21 14:14 39.462650 -112.405858 16 35309ft 437kts
05-Jan-21 14:16 39.574089 -112.343296 17 35307ft 438kts
05-Jan-21 14:17 39.685758 -112.279977 17 35324ft 439kts
05-Jan-21 14:18 39.797472 -112.216798 17 35335ft 439kts
05-Jan-21 14:19 39.909236 -112.153477 17 35337ft 439kts
05-Jan-21 14:20 40.020507 -112.089512 18 35337ft 439kts
05-Jan-21 14:21 40.131775 -112.024205 17 35336ft 439kts
05-Jan-21 14:22 40.241481 -111.954450 24 35328ft 443kts
05-Jan-21 14:23 40.338458 -111.855039 38 35310ft 446kts
05-Jan-21 14:24 40.424577 -111.738964 39 35290ft 443kts
05-Jan-21 14:25 40.510138 -111.623197 39 35282ft 443kts
05-Jan-21 14:26 40.595798 -111.507042 39 35284ft 442kts
05-Jan-21 14:27 40.681283 -111.390591 39 35281ft 442kts
05-Jan-21 14:28 40.766230 -111.274104 39 35292ft 442kts
05-Jan-21 14:29 40.851488 -111.156888 39 35306ft 442kts
05-Jan-21 14:29 40.922449 -111.059168 39 35311ft 442kts
05-Jan-21 14:31 41.021382 -110.922340 39 35293ft 442kts
05-Jan-21 14:32 41.106373 -110.804340 40 35276ft 442kts
05-Jan-21 14:33 41.191195 -110.686564 40 35278ft 442kts
05-Jan-21 14:33 41.261760 -110.587854 40 35276ft 442kts
05-Jan-21 14:34 41.348426 -110.472889 31 35269ft 436kts
05-Jan-21 14:36 41.475315 -110.398068 5 35248ft 429kts
05-Jan-21 14:36 41.573053 -110.373079 5 35241ft 429kts
05-Jan-21 14:37 41.690332 -110.342821 6 35243ft 430kts
05-Jan-21 14:38 41.807657 -110.311943 6 35244ft 430kts
05-Jan-21 14:39 41.925246 -110.281201 6 35244ft 430kts
05-Jan-21 14:40 42.042405 -110.250524 6 35232ft 430kts
05-Jan-21 14:41 42.159727 -110.219730 6 35208ft 430kts
05-Jan-21 14:42 42.276867 -110.188877 6 35201ft 430kts
05-Jan-21 14:43 42.390404 -110.158787 6 33932ft 409kts
05-Jan-21 14:44 42.500857 -110.129536 6 32103ft 404kts
05-Jan-21 14:45 42.609174 -110.130243 342 30103ft 389kts
05-Jan-21 14:46 42.708928 -110.183535 334 28103ft 385kts
05-Jan-21 14:47 42.806982 -110.242097 334 26299ft 386kts
05-Jan-21 14:48 42.904492 -110.299985 334 24900ft 379kts
05-Jan-21 14:49 43.000339 -110.356978 334 23493ft 375kts
05-Jan-21 14:50 43.095562 -110.413828 334 22090ft 375kts
05-Jan-21 14:51 43.190889 -110.470659 335 20689ft 374kts
05-Jan-21 14:52 43.294534 -110.461553 12 19280ft 388kts
05-Jan-21 14:53 43.397888 -110.421989 12 17875ft 386kts
05-Jan-21 14:54 43.500246 -110.384083 12 16415ft 377kts
05-Jan-21 14:55 43.598922 -110.347969 12 14909ft 355kts
05-Jan-21 14:56 43.692212 -110.333786 357 13518ft 326kts
05-Jan-21 14:57 43.777574 -110.332628 358 13023ft 279kts
05-Jan-21 14:58 43.824864 -110.387730 274 12492ft 241kts
05-Jan-21 14:59 43.818481 -110.476734 268 11565ft 215kts
05-Jan-21 15:00 43.806613 -110.554590 248 10686ft 204kts
05-Jan-21 15:01 43.781516 -110.621196 231 9716ft 195kts
05-Jan-21 15:02 43.740825 -110.666695 217 8856ft 165kts
05-Jan-21 15:03 43.700186 -110.692564 202 8227ft 161kts
05-Jan-21 15:04 43.658418 -110.712992 202 7399ft 159kts
05-Jan-21 15:05 43.616690 -110.733209 203 6533ft 159kts
05-Jan-21 15:06 43.593595 -110.741269 55 6406ft 3kts
05-Jan-21 15:07 43.597461 -110.740950 13 6420ft 17kts
05-Jan-21 15:08 43.599919 -110.739677 64 6425ft 7kts
05-Jan-21 15:09 43.599953 -110.738885 102 6425ft 0kts

Navigation Log

Ident Type
Flight plan parsing failed, navigation log unavailable